createdAt,value
2019-02-26T00:00:47.302Z,98025.46
2019-02-26T00:03:14.506Z,98032.93
2019-02-26T00:05:41.547Z,98046.69
2019-02-26T00:08:08.583Z,98042.01
2019-02-26T00:10:38.508Z,98047.25
2019-02-26T00:13:04.588Z,98047.53
2019-02-26T00:15:35.576Z,98045.02
2019-02-26T00:18:00.690Z,98042.51
2019-02-26T00:20:29.649Z,98032.18
2019-02-26T00:22:57.626Z,98029.70
2019-02-26T00:25:25.673Z,98028.66
2019-02-26T00:27:54.635Z,98026.63
2019-02-26T00:30:21.638Z,98016.45
2019-02-26T00:32:48.694Z,98011.22
2019-02-26T00:35:16.502Z,98013.34
2019-02-26T00:37:46.474Z,98004.13
2019-02-26T00:40:14.534Z,98006.37
2019-02-26T00:42:42.582Z,97997.37
2019-02-26T00:45:09.694Z,97998.13
2019-02-26T00:47:38.704Z,98003.61
2019-02-26T00:50:07.384Z,97994.82
2019-02-26T00:52:37.038Z,97990.84
2019-02-26T00:55:05.395Z,97974.17
2019-02-26T00:57:33.965Z,97974.17
2019-02-26T01:00:03.397Z,97980.55
2019-02-26T01:02:31.227Z,97976.09
2019-02-26T01:04:58.285Z,97974.63
2019-02-26T01:07:26.115Z,97973.30
2019-02-26T01:09:55.209Z,97961.38
2019-02-26T01:12:23.222Z,97946.06
2019-02-26T01:14:50.387Z,97941.81
2019-02-26T01:17:18.816Z,97929.88
2019-02-26T01:19:46.054Z,97925.70
2019-02-26T01:22:13.104Z,97928.00
2019-02-26T01:24:40.158Z,97931.62
2019-02-26T01:27:07.215Z,97939.72
2019-02-26T01:29:34.253Z,97943.00
2019-02-26T01:32:02.207Z,97942.16
2019-02-26T01:34:29.353Z,97933.23
2019-02-26T01:36:56.404Z,97933.23
2019-02-26T01:39:23.487Z,97933.06
2019-02-26T01:41:53.195Z,97953.88
2019-02-26T01:44:19.492Z,97944.95
2019-02-26T01:46:46.549Z,97944.11
2019-02-26T01:49:13.748Z,97940.97
2019-02-26T01:51:42.728Z,97942.30
2019-02-26T01:54:11.768Z,97943.97
2019-02-26T01:56:38.773Z,97943.34
2019-02-26T01:59:05.835Z,97946.41
2019-02-26T02:01:32.918Z,97955.73
2019-02-26T02:04:00.008Z,97944.98
2019-02-26T02:06:27.062Z,97944.49
2019-02-26T02:08:55.745Z,97947.49
2019-02-26T02:11:23.874Z,97940.86
2019-02-26T02:13:51.979Z,97934.44
2019-02-26T02:16:19.043Z,97937.58
2019-02-26T02:18:48.379Z,97940.93
2019-02-26T02:21:15.087Z,97940.09
2019-02-26T02:23:43.856Z,97939.40
2019-02-26T02:26:13.224Z,97941.49
2019-02-26T02:28:40.083Z,97930.72
2019-02-26T02:31:07.155Z,97939.64
2019-02-26T02:33:35.419Z,97936.79
2019-02-26T02:36:03.166Z,97942.44
2019-02-26T02:38:30.205Z,97927.79
2019-02-26T02:40:57.286Z,97927.79
2019-02-26T02:43:24.349Z,97931.84
2019-02-26T02:45:53.119Z,97922.70
2019-02-26T02:48:20.316Z,97931.14
2019-02-26T02:50:47.350Z,97924.17
2019-02-26T02:53:14.424Z,97910.30
2019-02-26T02:55:44.281Z,97917.96
2019-02-26T02:58:13.081Z,97918.45
2019-02-26T03:00:39.376Z,97911.34
2019-02-26T03:03:06.449Z,97910.50
2019-02-26T03:05:35.130Z,97904.50
2019-02-26T03:08:02.480Z,97906.45
2019-02-26T03:10:33.535Z,97910.09
2019-02-26T03:13:00.416Z,97912.59
2019-02-26T03:15:29.453Z,97913.57
2019-02-26T03:17:56.343Z,97913.57
2019-02-26T03:20:24.743Z,97894.67
2019-02-26T03:22:52.361Z,97894.67
2019-02-26T03:25:23.054Z,97904.78
2019-02-26T03:27:48.350Z,97898.13
2019-02-26T03:30:26.086Z,97898.13
2019-02-26T03:32:47.301Z,97899.97
2019-02-26T03:35:16.688Z,97899.97
2019-02-26T03:37:43.770Z,97897.47
2019-02-26T03:40:11.023Z,97902.77
2019-02-26T03:42:39.038Z,97896.31
2019-02-26T03:45:08.491Z,97904.75
2019-02-26T03:47:35.548Z,97905.23
2019-02-26T03:50:02.825Z,97898.27
2019-02-26T03:52:32.143Z,97893.80
2019-02-26T03:54:58.826Z,97889.13
2019-02-26T03:57:26.060Z,97883.14
2019-02-26T03:59:53.125Z,97890.66
2019-02-26T04:02:23.319Z,97882.16
2019-02-26T04:04:54.037Z,97884.67
2019-02-26T04:07:18.064Z,97873.38
2019-02-26T04:09:47.289Z,97871.50
2019-02-26T04:12:15.412Z,97871.15
2019-02-26T04:14:43.058Z,97870.80
2019-02-26T04:17:10.086Z,97857.55
2019-02-26T04:19:37.119Z,97867.17
2019-02-26T04:22:49.876Z,97863.76
2019-02-26T04:25:38.246Z,97863.76
2019-02-26T04:28:13.816Z,97869.69
2019-02-26T04:31:46.414Z,97872.82
2019-02-26T04:34:48.606Z,97872.82
2019-02-26T04:37:53.132Z,97857.48
2019-02-26T04:41:03.085Z,97857.48
2019-02-26T04:44:03.809Z,97853.09
2019-02-26T04:46:57.182Z,97849.47
2019-02-26T04:49:27.379Z,97842.70
2019-02-26T04:51:54.266Z,97841.38
2019-02-26T04:54:24.291Z,97828.41
2019-02-26T04:56:51.002Z,97836.08
2019-02-26T04:59:18.189Z,97833.43
2019-02-26T05:01:47.215Z,97825.97
2019-02-26T05:04:14.418Z,97825.97
2019-02-26T05:06:41.479Z,97826.66
2019-02-26T05:09:10.512Z,97812.80
2019-02-26T05:11:40.601Z,97815.92
2019-02-26T05:14:07.207Z,97815.92
2019-02-26T05:16:37.796Z,97823.04
2019-02-26T05:19:04.365Z,97823.04
2019-02-26T05:21:34.892Z,97821.23
2019-02-26T05:24:02.903Z,97825.41
2019-02-26T05:26:30.319Z,97828.92
2019-02-26T05:28:57.592Z,97817.89
2019-02-26T05:31:24.654Z,97813.28
2019-02-26T05:33:54.223Z,97816.97
2019-02-26T05:36:20.688Z,97809.22
2019-02-26T05:38:49.379Z,97809.92
2019-02-26T05:41:16.698Z,97806.63
2019-02-26T05:43:49.291Z,97813.92
2019-02-26T05:46:12.705Z,97816.75
2019-02-26T05:48:40.696Z,97808.45
2019-02-26T05:51:09.349Z,97812.08
2019-02-26T05:53:37.698Z,97806.43
2019-02-26T05:56:04.763Z,97808.94
2019-02-26T05:58:33.613Z,97806.95
2019-02-26T06:01:00.758Z,97805.48
2019-02-26T06:03:27.818Z,97807.49
2019-02-26T06:05:57.293Z,97812.65
2019-02-26T06:08:26.698Z,97808.19
2019-02-26T06:10:52.844Z,97809.86
2019-02-26T06:13:19.906Z,97805.88
2019-02-26T06:15:46.958Z,97800.44
2019-02-26T06:18:14.020Z,97804.27
2019-02-26T06:20:41.060Z,97813.60
2019-02-26T06:23:08.138Z,97813.66
2019-02-26T06:25:35.187Z,97822.81
2019-02-26T06:28:06.680Z,97823.02
2019-02-26T06:30:31.231Z,97828.90
2019-02-26T06:33:02.025Z,97828.55
2019-02-26T06:35:27.256Z,97824.16
2019-02-26T06:37:54.300Z,97825.81
2019-02-26T06:40:21.322Z,97819.80
2019-02-26T06:42:48.377Z,97823.89
2019-02-26T06:45:16.537Z,97820.89
2019-02-26T06:47:45.654Z,97818.09
2019-02-26T06:50:13.815Z,97821.22
2019-02-26T06:52:43.013Z,97823.89
2019-02-26T06:55:10.887Z,97826.23
2019-02-26T06:57:39.170Z,97829.09
2019-02-26T07:00:09.339Z,97834.45
2019-02-26T07:02:36.367Z,97838.79
2019-02-26T07:05:03.751Z,97835.56
2019-02-26T07:07:30.817Z,97833.01
2019-02-26T07:09:58.244Z,97839.27
2019-02-26T07:12:26.493Z,97838.53
2019-02-26T07:14:55.473Z,97840.45
2019-02-26T07:17:22.560Z,97838.61
2019-02-26T07:19:51.239Z,97829.55
2019-02-26T07:22:18.535Z,97824.60
2019-02-26T07:24:48.314Z,97824.63
2019-02-26T07:27:14.499Z,97830.79
2019-02-26T07:29:42.882Z,97840.97
2019-02-26T07:32:12.297Z,97845.63
2019-02-26T07:34:40.435Z,97854.13
2019-02-26T07:37:09.310Z,97857.61
2019-02-26T07:39:37.335Z,97858.94
2019-02-26T07:42:04.416Z,97838.06
2019-02-26T07:44:31.460Z,97840.89
2019-02-26T07:47:00.626Z,97848.06
2019-02-26T07:49:27.454Z,97842.52
2019-02-26T07:51:56.087Z,97855.53
2019-02-26T07:54:23.438Z,97858.70
2019-02-26T07:56:52.608Z,97850.52
2019-02-26T07:59:27.387Z,97847.86
2019-02-26T08:01:49.751Z,97840.96
2019-02-26T08:04:18.397Z,97837.23
2019-02-26T08:06:45.588Z,97827.08
2019-02-26T08:09:14.537Z,97820.76
2019-02-26T08:11:43.792Z,97816.77
2019-02-26T08:14:10.714Z,97820.52
2019-02-26T08:16:37.773Z,97813.27
2019-02-26T08:19:04.820Z,97819.57
2019-02-26T08:21:31.884Z,97812.20
2019-02-26T08:23:58.910Z,97809.43
2019-02-26T08:26:26.734Z,97816.40
2019-02-26T08:28:53.844Z,97819.19
2019-02-26T08:31:23.117Z,97812.13
2019-02-26T08:33:51.709Z,97816.47
2019-02-26T08:36:18.746Z,97808.30
2019-02-26T08:38:45.830Z,97809.12
2019-02-26T08:41:12.864Z,97813.28
2019-02-26T08:43:42.114Z,97808.47
2019-02-26T08:46:10.022Z,97809.74
2019-02-26T08:48:39.454Z,97811.73
2019-02-26T08:51:09.031Z,97808.36
2019-02-26T08:53:35.785Z,97811.98
2019-02-26T08:56:04.061Z,97816.75
2019-02-26T08:58:31.198Z,97813.63
2019-02-26T09:00:58.243Z,97824.89
2019-02-26T09:03:25.285Z,97825.88
2019-02-26T09:05:53.923Z,97828.46
2019-02-26T09:08:21.310Z,97827.69
2019-02-26T09:10:48.664Z,97836.13
2019-02-26T09:13:16.461Z,97815.73
2019-02-26T09:15:44.668Z,97808.02
2019-02-26T09:18:11.703Z,97812.21
2019-02-26T09:20:38.749Z,97805.02
2019-02-26T09:23:05.924Z,97802.62
2019-02-26T09:25:33.990Z,97800.62
2019-02-26T09:28:01.169Z,97804.20
2019-02-26T09:30:30.908Z,97806.20
2019-02-26T09:32:59.072Z,97815.16
2019-02-26T09:35:28.855Z,97814.67
2019-02-26T09:37:57.778Z,97819.91
2019-02-26T09:40:26.605Z,97817.09
2019-02-26T09:42:55.096Z,97811.23
2019-02-26T09:45:25.380Z,97807.89
2019-02-26T09:47:54.323Z,97810.92
2019-02-26T09:50:22.561Z,97812.11
2019-02-26T09:52:50.812Z,97811.02
2019-02-26T09:55:20.799Z,97814.16
2019-02-26T09:57:47.851Z,97811.31
2019-02-26T10:00:16.977Z,97806.38
2019-02-26T10:02:45.217Z,97805.08
2019-02-26T10:05:15.856Z,97809.90
2019-02-26T10:07:42.726Z,97803.01
2019-02-26T10:10:14.024Z,97807.17
2019-02-26T10:12:40.727Z,97810.05
2019-02-26T10:15:08.167Z,97806.34
2019-02-26T10:17:37.560Z,97808.41
2019-02-26T10:20:09.172Z,97805.50
2019-02-26T10:22:36.316Z,97802.98
2019-02-26T10:25:04.749Z,97800.46
2019-02-26T10:27:35.760Z,97801.45
2019-02-26T10:30:02.846Z,97805.13
2019-02-26T10:32:29.702Z,97801.15
2019-02-26T10:34:56.747Z,97806.70
2019-02-26T10:37:23.811Z,97801.94
2019-02-26T10:39:52.244Z,97794.36
2019-02-26T10:42:19.803Z,97792.61
2019-02-26T10:44:46.875Z,97787.50
2019-02-26T10:47:13.937Z,97780.33
2019-02-26T10:49:41.019Z,97777.05
2019-02-26T10:52:10.873Z,97777.05
2019-02-26T10:54:40.348Z,97773.91
2019-02-26T10:57:07.488Z,97765.23
2019-02-26T10:59:34.939Z,97765.23
2019-02-26T11:02:03.146Z,97760.67
2019-02-26T11:04:34.817Z,97751.48
2019-02-26T11:07:01.684Z,97751.48
2019-02-26T11:09:29.892Z,97748.02
2019-02-26T11:11:58.417Z,97738.95
2019-02-26T11:14:26.299Z,97757.89
2019-02-26T11:16:53.364Z,97734.99
2019-02-26T11:19:20.424Z,97718.23
2019-02-26T11:21:50.034Z,97729.49
2019-02-26T11:24:17.005Z,97726.69
2019-02-26T11:26:44.087Z,97726.69
2019-02-26T11:29:11.141Z,97721.75
2019-02-26T11:31:39.626Z,97724.70
2019-02-26T11:34:10.257Z,97718.72
2019-02-26T11:36:38.367Z,97714.95
2019-02-26T11:39:06.913Z,97715.14
2019-02-26T11:41:35.919Z,97710.87
2019-02-26T11:44:07.348Z,97717.67
2019-02-26T11:46:34.311Z,97712.08
2019-02-26T11:49:00.989Z,97710.42
2019-02-26T11:51:36.793Z,97703.65
2019-02-26T11:53:56.997Z,97699.09
2019-02-26T11:56:25.777Z,97699.68
2019-02-26T11:58:53.029Z,97706.01
2019-02-26T12:01:20.107Z,97699.81
2019-02-26T12:03:47.151Z,97688.43
2019-02-26T12:06:14.243Z,97684.55
2019-02-26T12:08:43.114Z,97679.53
2019-02-26T12:11:16.518Z,97684.73
2019-02-26T12:13:40.093Z,97685.75
2019-02-26T12:16:08.235Z,97674.58
2019-02-26T12:18:36.832Z,97669.63
2019-02-26T12:21:05.961Z,97675.95
2019-02-26T12:23:34.420Z,97676.79
2019-02-26T12:26:03.938Z,97665.64
2019-02-26T12:28:34.164Z,97671.02
2019-02-26T12:31:01.378Z,97667.30
2019-02-26T12:33:32.324Z,97664.21
2019-02-26T12:35:59.532Z,97659.84
2019-02-26T12:38:26.916Z,97658.44
2019-02-26T12:40:53.977Z,97654.36
2019-02-26T12:43:21.021Z,97640.25
2019-02-26T12:45:48.146Z,97649.75
2019-02-26T12:48:19.150Z,97645.77
2019-02-26T12:50:44.225Z,97644.66
2019-02-26T12:53:12.622Z,97631.80
2019-02-26T12:55:42.155Z,97632.67
2019-02-26T12:58:10.648Z,97636.64
2019-02-26T13:00:41.290Z,97640.92
2019-02-26T13:03:09.322Z,97636.51
2019-02-26T13:05:38.415Z,97626.91
2019-02-26T13:08:06.154Z,97625.49
2019-02-26T13:10:33.954Z,97629.17
2019-02-26T13:13:03.945Z,97630.61
2019-02-26T13:15:30.023Z,97632.35
2019-02-26T13:17:57.093Z,97624.83
2019-02-26T13:20:24.176Z,97620.74
2019-02-26T13:22:56.446Z,97623.98
2019-02-26T13:25:21.580Z,97619.41
2019-02-26T13:27:49.164Z,97617.47
2019-02-26T13:30:18.195Z,97616.16
2019-02-26T13:33:04.759Z,97612.77
2019-02-26T13:35:14.203Z,97607.63
2019-02-26T13:37:42.435Z,97600.55
2019-02-26T13:40:12.011Z,97596.67
2019-02-26T13:42:39.085Z,97594.59
2019-02-26T13:45:07.752Z,97585.68
2019-02-26T13:47:34.795Z,97586.21
2019-02-26T13:50:01.849Z,97583.06
2019-02-26T13:52:28.921Z,97584.27
2019-02-26T13:54:55.993Z,97586.20
2019-02-26T13:57:23.054Z,97579.57
2019-02-26T13:59:50.234Z,97572.50
2019-02-26T14:02:17.313Z,97572.11
2019-02-26T14:04:44.507Z,97572.20
2019-02-26T14:07:11.566Z,97563.87
2019-02-26T14:09:38.639Z,97564.70
2019-02-26T14:12:05.703Z,97570.28
2019-02-26T14:14:32.785Z,97556.44
2019-02-26T14:16:59.843Z,97554.78
2019-02-26T14:19:26.905Z,97547.73
2019-02-26T14:21:53.987Z,97555.00
2019-02-26T14:24:21.044Z,97552.16
2019-02-26T14:26:48.436Z,97547.24
2019-02-26T14:29:15.492Z,97557.57
2019-02-26T14:31:42.576Z,97553.11
2019-02-26T14:34:09.641Z,97546.53
2019-02-26T14:36:36.745Z,97551.97
2019-02-26T14:39:04.760Z,97542.72
2019-02-26T14:41:31.819Z,97546.72
2019-02-26T14:43:58.906Z,97538.58
2019-02-26T14:46:25.968Z,97540.46
2019-02-26T14:48:53.038Z,97543.17
2019-02-26T14:51:20.102Z,97538.37
2019-02-26T14:53:49.075Z,97545.48
2019-02-26T14:56:16.220Z,97550.30
2019-02-26T14:58:43.290Z,97547.17
2019-02-26T15:01:10.332Z,97537.78
2019-02-26T15:03:37.406Z,97547.59
2019-02-26T15:06:04.468Z,97544.66
2019-02-26T15:08:31.522Z,97546.04
2019-02-26T15:10:58.574Z,97547.45
2019-02-26T15:13:25.663Z,97538.91
2019-02-26T15:15:52.713Z,97534.98
2019-02-26T15:18:19.753Z,97527.41
2019-02-26T15:20:47.020Z,97535.73
2019-02-26T15:23:14.066Z,97537.56
2019-02-26T15:25:41.154Z,97541.47
2019-02-26T15:28:08.250Z,97536.22
2019-02-26T15:30:35.312Z,97540.23
2019-02-26T15:33:10.818Z,97535.66
2019-02-26T15:35:31.379Z,97529.22
2019-02-26T15:37:58.476Z,97539.59
2019-02-26T15:40:25.576Z,97543.35
2019-02-26T15:42:56.079Z,97541.17
2019-02-26T15:45:23.752Z,97524.55
2019-02-26T15:47:50.786Z,97524.55
2019-02-26T15:50:17.942Z,97529.17
2019-02-26T15:52:45.028Z,97529.17
2019-02-26T15:55:19.314Z,97517.05
2019-02-26T15:57:46.741Z,97520.03
2019-02-26T16:00:16.699Z,97516.06
2019-02-26T16:02:43.778Z,97516.06
2019-02-26T16:05:10.869Z,97524.63
2019-02-26T16:07:37.940Z,97528.23
2019-02-26T16:10:06.416Z,97528.56
2019-02-26T16:12:34.014Z,97528.70
2019-02-26T16:15:01.101Z,97528.91
2019-02-26T16:17:28.160Z,97543.52
2019-02-26T16:19:55.250Z,97546.02
2019-02-26T16:22:22.343Z,97555.20
2019-02-26T16:24:49.404Z,97548.39
2019-02-26T16:27:16.607Z,97551.77
2019-02-26T16:29:43.995Z,97554.16
2019-02-26T16:32:11.068Z,97547.94
2019-02-26T16:34:38.158Z,97558.14
2019-02-26T16:37:07.133Z,97565.27
2019-02-26T16:39:34.262Z,97557.27
2019-02-26T16:42:01.418Z,97568.17
2019-02-26T16:44:28.545Z,97564.63
2019-02-26T16:46:55.619Z,97569.23
2019-02-26T16:49:22.713Z,97572.15
2019-02-26T16:51:49.847Z,97570.72
2019-02-26T16:54:16.987Z,97565.99
2019-02-26T16:56:44.076Z,97571.98
2019-02-26T16:59:11.215Z,97570.63
2019-02-26T17:01:40.253Z,97567.38
2019-02-26T17:04:07.712Z,97574.36
2019-02-26T17:06:35.352Z,97570.74
2019-02-26T17:09:03.028Z,97571.46
2019-02-26T17:11:30.132Z,97564.75
2019-02-26T17:13:57.240Z,97565.53
2019-02-26T17:16:24.337Z,97571.13
2019-02-26T17:18:51.457Z,97575.83
2019-02-26T17:21:18.602Z,97582.84
2019-02-26T17:23:47.086Z,97582.98
2019-02-26T17:26:14.910Z,97580.77
2019-02-26T17:28:44.102Z,97584.59
2019-02-26T17:31:11.034Z,97591.89
2019-02-26T17:33:38.176Z,97599.92
2019-02-26T17:36:05.337Z,97602.30
2019-02-26T17:38:32.442Z,97601.98
2019-02-26T17:40:59.530Z,97599.92
2019-02-26T17:43:26.653Z,97595.85
2019-02-26T17:45:53.758Z,97597.78
2019-02-26T17:48:20.914Z,97596.70
2019-02-26T17:50:48.085Z,97586.04
2019-02-26T17:53:15.278Z,97580.12
2019-02-26T17:55:42.433Z,97583.75
2019-02-26T17:58:10.647Z,97583.24
2019-02-26T18:00:40.136Z,97582.73
2019-02-26T18:03:07.699Z,97578.20
2019-02-26T18:05:40.564Z,97579.55
2019-02-26T18:08:04.964Z,97586.75
2019-02-26T18:10:32.332Z,97577.89
2019-02-26T18:12:59.466Z,97578.84
2019-02-26T18:15:26.923Z,97579.91
2019-02-26T18:17:54.083Z,97579.84
2019-02-26T18:20:21.340Z,97580.10
2019-02-26T18:22:48.510Z,97583.55
2019-02-26T18:25:16.142Z,97592.13
2019-02-26T18:27:46.728Z,97583.91
2019-02-26T18:30:16.322Z,97589.90
2019-02-26T18:32:49.938Z,97587.22
2019-02-26T18:35:12.613Z,97593.22
2019-02-26T18:37:46.389Z,97591.87
2019-02-26T18:40:09.794Z,97589.20
2019-02-26T18:42:38.728Z,97592.52
2019-02-26T18:45:09.386Z,97583.65
2019-02-26T18:47:37.049Z,97591.18
2019-02-26T18:50:04.322Z,97585.11
2019-02-26T18:52:33.756Z,97579.44
2019-02-26T18:55:01.387Z,97574.78
2019-02-26T18:57:28.595Z,97580.66
2019-02-26T18:59:57.747Z,97584.16
2019-02-26T19:02:25.845Z,97593.34
2019-02-26T19:04:53.531Z,97591.87
2019-02-26T19:07:21.354Z,97592.90
2019-02-26T19:09:49.324Z,97593.41
2019-02-26T19:12:18.589Z,97592.77
2019-02-26T19:14:46.149Z,97585.81
2019-02-26T19:17:13.831Z,97586.42
2019-02-26T19:19:42.069Z,97585.97
2019-02-26T19:22:10.392Z,97581.51
2019-02-26T19:24:39.233Z,97580.67
2019-02-26T19:27:07.660Z,97576.02
2019-02-26T19:29:35.808Z,97569.00
2019-02-26T19:32:03.368Z,97564.16
2019-02-26T19:34:31.082Z,97562.31
2019-02-26T19:36:58.443Z,97559.82
2019-02-26T19:39:25.966Z,97568.36
2019-02-26T19:41:53.561Z,97563.84
2019-02-26T19:44:20.932Z,97553.03
2019-02-26T19:46:50.166Z,97558.38
2019-02-26T19:49:17.972Z,97554.87
2019-02-26T19:51:45.451Z,97548.47
2019-02-26T19:54:12.665Z,97541.77
2019-02-26T19:56:40.796Z,97538.30
2019-02-26T19:59:08.567Z,97536.95
2019-02-26T20:01:37.130Z,97528.92
2019-02-26T20:04:04.894Z,97537.15
2019-02-26T20:06:35.243Z,97533.13
2019-02-26T20:09:05.817Z,97533.45
2019-02-26T20:11:34.935Z,97531.80
2019-02-26T20:14:04.849Z,97533.83
2019-02-26T20:16:31.611Z,97515.78
2019-02-26T20:19:01.349Z,97522.99
2019-02-26T20:21:29.296Z,97521.02
2019-02-26T20:23:56.632Z,97522.22
2019-02-26T20:26:23.882Z,97517.19
2019-02-26T20:28:51.223Z,97511.52
2019-02-26T20:31:21.472Z,97511.70
2019-02-26T20:33:49.708Z,97508.01
2019-02-26T20:36:17.765Z,97505.14
2019-02-26T20:38:45.878Z,97507.50
2019-02-26T20:41:13.062Z,97505.33
2019-02-26T20:43:40.291Z,97507.17
2019-02-26T20:46:07.607Z,97509.86
2019-02-26T20:48:36.756Z,97515.41
2019-02-26T20:51:05.962Z,97518.97
2019-02-26T20:53:33.149Z,97511.67
2019-02-26T20:56:00.372Z,97514.09
2019-02-26T20:58:27.635Z,97511.79
2019-02-26T21:00:58.794Z,97513.19
2019-02-26T21:03:26.366Z,97515.17
2019-02-26T21:05:53.854Z,97517.52
2019-02-26T21:08:20.984Z,97517.39
2019-02-26T21:10:48.740Z,97520.26
2019-02-26T21:13:16.143Z,97519.84
2019-02-26T21:15:44.675Z,97516.02
2019-02-26T21:18:12.330Z,97512.19
2019-02-26T21:20:41.103Z,97518.88
2019-02-26T21:23:08.905Z,97510.02
2019-02-26T21:25:36.624Z,97507.86
2019-02-26T21:28:03.739Z,97508.87
2019-02-26T21:30:30.889Z,97508.74
2019-02-26T21:32:58.698Z,97507.08
2019-02-26T21:35:25.977Z,97499.24
2019-02-26T21:37:53.080Z,97498.41
2019-02-26T21:40:20.180Z,97499.11
2019-02-26T21:42:47.308Z,97500.77
2019-02-26T21:45:16.143Z,97502.94
2019-02-26T21:47:43.469Z,97503.26
2019-02-26T21:50:10.900Z,97506.63
2019-02-26T21:52:42.103Z,97505.80
2019-02-26T21:55:09.084Z,97507.84
2019-02-26T21:57:36.199Z,97504.33
2019-02-26T22:00:05.490Z,97502.99
2019-02-26T22:02:32.876Z,97505.86
2019-02-26T22:04:59.952Z,97511.20
2019-02-26T22:07:27.034Z,97513.28
2019-02-26T22:09:54.108Z,97516.14
2019-02-26T22:12:21.858Z,97519.83
2019-02-26T22:14:50.124Z,97517.34
2019-02-26T22:17:17.178Z,97519.38
2019-02-26T22:19:44.239Z,97517.91
2019-02-26T22:22:11.299Z,97529.30
2019-02-26T22:24:40.536Z,97530.31
2019-02-26T22:27:07.284Z,97538.53
2019-02-26T22:29:36.323Z,97542.55
2019-02-26T22:32:03.242Z,97537.56
2019-02-26T22:34:30.318Z,97538.58
2019-02-26T22:36:57.350Z,97546.00
2019-02-26T22:39:24.381Z,97543.19
2019-02-26T22:41:51.408Z,97542.03
2019-02-26T22:44:18.707Z,97538.72
2019-02-26T22:46:47.418Z,97537.05
2019-02-26T22:49:14.469Z,97528.71
2019-02-26T22:51:41.497Z,97523.69
2019-02-26T22:54:09.859Z,97529.03
2019-02-26T22:56:37.396Z,97527.38
2019-02-26T22:59:07.780Z,97534.06
2019-02-26T23:01:37.226Z,97531.57
2019-02-26T23:04:04.339Z,97535.95
2019-02-26T23:06:31.748Z,97536.83
2019-02-26T23:08:59.444Z,97532.20
2019-02-26T23:11:31.705Z,97535.58
2019-02-26T23:13:56.279Z,97536.08
2019-02-26T23:16:24.606Z,97528.42
2019-02-26T23:19:12.967Z,97531.28
2019-02-26T23:21:41.401Z,97524.97
2019-02-26T23:24:08.629Z,97524.70
2019-02-26T23:26:35.689Z,97525.71
2019-02-26T23:29:02.730Z,97524.77
2019-02-26T23:31:32.723Z,97523.11
2019-02-26T23:33:58.833Z,97525.65
2019-02-26T23:36:28.591Z,97517.48
2019-02-26T23:38:54.862Z,97509.52
2019-02-26T23:41:21.929Z,97514.86
2019-02-26T23:43:48.993Z,97520.72
2019-02-26T23:46:16.043Z,97515.55
2019-02-26T23:48:43.085Z,97508.87
2019-02-26T23:51:10.128Z,97506.70
2019-02-26T23:53:37.175Z,97510.71
2019-02-26T23:56:04.217Z,97503.20
2019-02-26T23:58:31.669Z,97509.56
